Detall de PIREP

Printer-friendly versionPDF version

[2012/11/17 11:52:00]
Flight IATA:CT0001
Pilot Number:044
Company ICAO:CAT
Aircraft Type:BE20/A
PAX:4
Departing Airport: LEIB
Destination Airport: LEMH
Alternate Airport:LEPA
Online: VATSIM
Route:MHN
Flight Level:F120
No Slew and time accel
No pause
Crash detect
Detect pilot in Cockpit between each 30 and 45 minutes
11:52 Zero fuel Weight: 9378 Lbs, Fuel Weight: 1322 Lbs
11:52 VATSIM:LEIB 171100Z 09011KT 060V120 9999 SCT015 BKN025 19/17 Q1010 NOSIG
11:52 VATSIM:LEMH 171100Z 10009KT 070V130 9999 FEW020 17/13 Q1012
11:52 VOICE CATALONIAN
11:52 Parking Brakes off
11:58 Take-off
11:58 Take off Weight: 10676 Lbs
11:58 Wind: 103º @ 011 Knots Heading: 063º
11:58 POS N38º 52´ 18´´ E001º 22´ 15´´
11:58 Flaps:1 at 130 Knots
11:58 Gear Up: 130 Knots
11:58 Flaps:0 at 135 Knots
12:06 TOC
12:06 Fuel Weight: 1192 Lb
12:13 Wind:080º@017 Knots Heading: 075º Ground Speed: 237 Knots Altitude 11906 ft
12:26 TOD
12:26 Fuel Weight: 939 Lb
12:28 Wind:081º@014 Knots Heading: 054º Ground Speed: 177 Knots Altitude 10331 ft
12:43 Wind:127º@011 Knots Heading: 156º Ground Speed: 168 Knots Altitude 2513 ft
12:46 Flaps:1 at 148 Knots
12:48 Flaps:2 at 130 Knots
12:48 Gear Down: 125 Knots
12:50 TouchDown:Rate -119 ft/min Speed: 98 Knots
12:51 VATSIM:LEMH 171200Z 10011KT 070V130 9999 FEW022 18/13 Q1011
12:51 Land
12:51 Wind:088º@011 Knots
12:51 Heading: 014º
12:51 Flight Duration: 00:53
12:51 Landing Weight: 10172 Lbs
12:51 POS N39º 51´ 51´´ E004º 13´ 08´´
12:52 Parking brakes on
12:52 Block to Block Duration: 01:00
12:52 Final Fuel: 787 Lbls
12:52 Spent Fuel: 535 Lbls
12:52 Flight Length: 172 NM
12:52 TOD Land Length: 71 NM

Exportar CSV

Powered by Drupal - Modified by Danger4k